createdAt,value
2018-03-02T00:00:13.918Z,96945.84
2018-03-02T00:00:45.546Z,96944.59
2018-03-02T00:01:17.169Z,96949.38
2018-03-02T00:01:48.790Z,96951.16
2018-03-02T00:02:20.417Z,96941.90
2018-03-02T00:02:52.102Z,96945.28
2018-03-02T00:03:23.735Z,96944.88
2018-03-02T00:03:55.363Z,96943.25
2018-03-02T00:04:27.002Z,96939.85
2018-03-02T00:04:58.630Z,96943.70
2018-03-02T00:05:30.299Z,96940.88
2018-03-02T00:06:01.927Z,96941.77
2018-03-02T00:06:33.561Z,96938.42
2018-03-02T00:07:05.191Z,96936.70
2018-03-02T00:07:36.847Z,96937.98
2018-03-02T00:08:08.482Z,96935.02
2018-03-02T00:08:40.111Z,96941.87
2018-03-02T00:09:11.734Z,96934.66
2018-03-02T00:09:43.365Z,96935.09
2018-03-02T00:10:14.990Z,96931.73
2018-03-02T00:10:46.657Z,96935.17
2018-03-02T00:11:18.320Z,96924.66
2018-03-02T00:11:49.951Z,96930.59
2018-03-02T00:12:21.583Z,96931.11
2018-03-02T00:12:53.259Z,96924.34
2018-03-02T00:13:24.930Z,96923.55
2018-03-02T00:13:56.554Z,96926.59
2018-03-02T00:14:28.178Z,96926.19
2018-03-02T00:14:59.802Z,96926.64
2018-03-02T00:15:31.426Z,96922.03
2018-03-02T00:16:03.054Z,96922.47
2018-03-02T00:16:34.679Z,96927.16
2018-03-02T00:17:06.310Z,96920.42
2018-03-02T00:17:37.940Z,96923.39
2018-03-02T00:18:09.606Z,96921.27
2018-03-02T00:18:41.238Z,96925.12
2018-03-02T00:19:12.918Z,96925.55
2018-03-02T00:19:44.555Z,96926.86
2018-03-02T00:20:16.179Z,96928.14
2018-03-02T00:20:47.811Z,96916.73
2018-03-02T00:21:19.443Z,96917.48
2018-03-02T00:21:51.171Z,96919.27
2018-03-02T00:22:22.803Z,96906.78
2018-03-02T00:22:54.431Z,96926.48
2018-03-02T00:23:26.054Z,96919.77
2018-03-02T00:23:57.680Z,96916.34
2018-03-02T00:24:29.342Z,96919.70
2018-03-02T00:25:00.970Z,96910.78
2018-03-02T00:25:32.595Z,96919.17
2018-03-02T00:26:04.217Z,96916.88
2018-03-02T00:26:35.846Z,96913.03
2018-03-02T00:27:07.479Z,96917.98
2018-03-02T00:27:39.102Z,96915.00
2018-03-02T00:28:10.730Z,96921.67
2018-03-02T00:28:42.359Z,96913.95
2018-03-02T00:29:13.987Z,96919.32
2018-03-02T00:29:45.662Z,96915.00
2018-03-02T00:30:17.290Z,96920.13
2018-03-02T00:30:48.966Z,96914.15
2018-03-02T00:31:20.594Z,96917.44
2018-03-02T00:31:52.222Z,96916.11
2018-03-02T00:32:23.851Z,96922.36
2018-03-02T00:32:55.478Z,96918.55
2018-03-02T00:33:27.114Z,96918.01
2018-03-02T00:33:58.742Z,96918.30
2018-03-02T00:34:30.371Z,96912.34
2018-03-02T00:35:02.003Z,96912.34
2018-03-02T00:35:33.626Z,96907.22
2018-03-02T00:36:05.290Z,96918.95
2018-03-02T00:36:36.918Z,96912.06
2018-03-02T00:37:08.546Z,96911.21
2018-03-02T00:37:40.187Z,96918.27
2018-03-02T00:38:11.810Z,96911.77
2018-03-02T00:38:43.434Z,96911.27
2018-03-02T00:39:15.068Z,96909.80
2018-03-02T00:39:46.735Z,96913.19
2018-03-02T00:40:18.359Z,96910.66
2018-03-02T00:40:49.995Z,96908.52
2018-03-02T00:41:21.618Z,96907.57
2018-03-02T00:41:53.287Z,96906.14
2018-03-02T00:42:24.915Z,96902.55
2018-03-02T00:42:56.543Z,96907.40
2018-03-02T00:43:28.170Z,96907.73
2018-03-02T00:43:59.794Z,96905.58
2018-03-02T00:44:31.418Z,96902.03
2018-03-02T00:45:03.054Z,96907.88
2018-03-02T00:45:34.686Z,96903.91
2018-03-02T00:46:06.362Z,96899.28
2018-03-02T00:46:37.991Z,96905.95
2018-03-02T00:47:09.618Z,96907.07
2018-03-02T00:47:41.246Z,96907.45
2018-03-02T00:48:12.875Z,96906.97
2018-03-02T00:48:44.511Z,96903.31
2018-03-02T00:49:16.142Z,96905.32
2018-03-02T00:49:47.771Z,96872.77
2018-03-02T00:50:19.398Z,96895.14
2018-03-02T00:50:51.026Z,96898.25
2018-03-02T00:51:22.699Z,96898.46
2018-03-02T00:51:54.323Z,96893.36
2018-03-02T00:52:25.946Z,96891.05
2018-03-02T00:52:57.579Z,96899.13
2018-03-02T00:53:29.203Z,96896.53
2018-03-02T00:54:00.827Z,96891.95
2018-03-02T00:54:32.459Z,96898.25
2018-03-02T00:55:04.085Z,96890.16
2018-03-02T00:55:35.750Z,96891.04
2018-03-02T00:56:07.380Z,96886.97
2018-03-02T00:56:39.006Z,96888.56
2018-03-02T00:57:10.635Z,96881.34
2018-03-02T00:57:42.275Z,96882.88
2018-03-02T00:58:13.906Z,96885.08
2018-03-02T00:58:45.550Z,96885.16
2018-03-02T00:59:17.169Z,96884.02
2018-03-02T00:59:48.810Z,96886.64
2018-03-02T01:00:20.434Z,96884.55
2018-03-02T01:00:52.054Z,96880.91
2018-03-02T01:01:23.722Z,96881.47
2018-03-02T01:01:55.345Z,96877.30
2018-03-02T01:02:27.017Z,96880.39
2018-03-02T01:02:58.681Z,96879.95
2018-03-02T01:03:30.359Z,96876.98
2018-03-02T01:04:01.982Z,96883.80
2018-03-02T01:04:33.605Z,96879.64
2018-03-02T01:05:05.226Z,96872.94
2018-03-02T01:05:36.849Z,96873.78
2018-03-02T01:06:08.478Z,96873.55
2018-03-02T01:06:40.112Z,96871.18
2018-03-02T01:07:11.778Z,96871.62
2018-03-02T01:07:43.460Z,96872.05
2018-03-02T01:08:15.086Z,96871.73
2018-03-02T01:08:46.714Z,96871.83
2018-03-02T01:09:18.342Z,96872.73
2018-03-02T01:09:49.981Z,96872.69
2018-03-02T01:10:21.602Z,96866.71
2018-03-02T01:10:53.229Z,96865.51
2018-03-02T01:11:24.853Z,96861.39
2018-03-02T01:11:56.482Z,96860.32
2018-03-02T01:12:28.114Z,96857.36
2018-03-02T01:12:59.786Z,96857.84
2018-03-02T01:13:31.415Z,96858.38
2018-03-02T01:14:03.050Z,96849.12
2018-03-02T01:14:34.727Z,96849.62
2018-03-02T01:15:06.355Z,96851.85
2018-03-02T01:15:37.981Z,96849.45
2018-03-02T01:16:09.601Z,96850.34
2018-03-02T01:16:41.227Z,96847.45
2018-03-02T01:17:12.858Z,96847.82
2018-03-02T01:17:44.490Z,96840.59
2018-03-02T01:18:16.125Z,96840.33
2018-03-02T01:18:47.749Z,96841.19
2018-03-02T01:19:19.370Z,96845.05
2018-03-02T01:19:51.061Z,96839.24
2018-03-02T01:20:22.691Z,96840.53
2018-03-02T01:20:54.314Z,96841.89
2018-03-02T01:21:25.941Z,96840.56
2018-03-02T01:21:57.566Z,96835.14
2018-03-02T01:22:29.190Z,96842.05
2018-03-02T01:23:00.817Z,96836.53
2018-03-02T01:23:32.498Z,96831.95
2018-03-02T01:24:04.131Z,96835.45
2018-03-02T01:24:35.778Z,96832.14
2018-03-02T01:25:07.406Z,96825.29
2018-03-02T01:25:39.033Z,96833.55
2018-03-02T01:26:10.662Z,96832.77
2018-03-02T01:26:42.290Z,96827.33
2018-03-02T01:27:13.926Z,96831.98
2018-03-02T01:27:45.553Z,96826.75
2018-03-02T01:28:17.186Z,96826.84
2018-03-02T01:28:48.874Z,96828.19
2018-03-02T01:29:20.498Z,96824.88
2018-03-02T01:29:52.125Z,96822.86
2018-03-02T01:30:23.745Z,96830.51
2018-03-02T01:30:55.382Z,96828.87
2018-03-02T01:31:27.010Z,96825.06
2018-03-02T01:31:58.639Z,96822.52
2018-03-02T01:32:30.327Z,96822.95
2018-03-02T01:33:01.958Z,96819.14
2018-03-02T01:33:33.798Z,96811.05
2018-03-02T01:34:05.426Z,96814.64
2018-03-02T01:34:37.057Z,96815.08
2018-03-02T01:35:08.702Z,96816.42
2018-03-02T01:35:40.345Z,96813.45
2018-03-02T01:36:11.978Z,96816.97
2018-03-02T01:36:43.624Z,96814.39
2018-03-02T01:37:15.308Z,96797.70
2018-03-02T01:37:46.927Z,96812.70
2018-03-02T01:38:18.574Z,96813.48
2018-03-02T01:38:50.201Z,96806.85
2018-03-02T01:39:21.829Z,96808.13
2018-03-02T01:39:53.453Z,96809.77
2018-03-02T01:40:25.078Z,96808.48
2018-03-02T01:40:56.701Z,96803.70
2018-03-02T01:41:28.326Z,96805.40
2018-03-02T01:41:59.950Z,96809.63
2018-03-02T01:42:31.577Z,96809.05
2018-03-02T01:43:03.215Z,96806.09
2018-03-02T01:43:34.842Z,96805.64
2018-03-02T01:44:06.518Z,96807.28
2018-03-02T01:44:38.148Z,96809.02
2018-03-02T01:45:09.794Z,96806.84
2018-03-02T01:45:41.418Z,96806.01
2018-03-02T01:46:13.042Z,96801.34
2018-03-02T01:46:44.674Z,96802.99
2018-03-02T01:47:16.337Z,96801.80
2018-03-02T01:47:47.958Z,96797.38
2018-03-02T01:48:19.577Z,96797.31
2018-03-02T01:48:51.206Z,96793.72
2018-03-02T01:49:22.870Z,96792.26
2018-03-02T01:49:54.489Z,96789.23
2018-03-02T01:50:26.110Z,96791.66
2018-03-02T01:50:57.782Z,96793.66
2018-03-02T01:51:29.406Z,96795.30
2018-03-02T01:52:01.030Z,96785.95
2018-03-02T01:52:32.669Z,96791.84
2018-03-02T01:53:04.290Z,96790.02
2018-03-02T01:53:35.913Z,96790.02
2018-03-02T01:54:07.534Z,96787.73
2018-03-02T01:54:39.154Z,96789.76
2018-03-02T01:55:10.777Z,96783.89
2018-03-02T01:55:42.403Z,96779.03
2018-03-02T01:56:14.026Z,96783.11
2018-03-02T01:56:45.655Z,96786.32
2018-03-02T01:57:17.278Z,96773.30
2018-03-02T01:57:48.906Z,96779.43
2018-03-02T01:58:20.531Z,96780.00
2018-03-02T01:58:52.163Z,96771.88
2018-03-02T01:59:23.786Z,96773.95
2018-03-02T01:59:55.414Z,96770.88
2018-03-02T02:00:27.039Z,96775.89
2018-03-02T02:00:58.703Z,96770.52
2018-03-02T02:01:30.381Z,96772.53
2018-03-02T02:02:02.015Z,96774.52
2018-03-02T02:02:33.642Z,96775.70
2018-03-02T02:03:05.266Z,96770.11
2018-03-02T02:03:36.889Z,96772.22
2018-03-02T02:04:08.514Z,96774.36
2018-03-02T02:04:40.142Z,96770.63
2018-03-02T02:05:11.767Z,96770.77
2018-03-02T02:05:43.394Z,96771.94
2018-03-02T02:06:15.023Z,96770.15
2018-03-02T02:06:46.694Z,96773.30
2018-03-02T02:07:18.366Z,96766.42
2018-03-02T02:07:49.993Z,96764.70
2018-03-02T02:08:21.618Z,96763.31
2018-03-02T02:08:53.242Z,96766.48
2018-03-02T02:09:24.875Z,96763.42
2018-03-02T02:09:56.498Z,96763.04
2018-03-02T02:10:28.126Z,96766.27
2018-03-02T02:10:59.790Z,96765.69
2018-03-02T02:11:31.413Z,96755.05
2018-03-02T02:12:03.043Z,96762.68
2018-03-02T02:12:34.670Z,96760.23
2018-03-02T02:13:06.294Z,96761.03
2018-03-02T02:13:37.947Z,96766.27
2018-03-02T02:14:09.612Z,96764.73
2018-03-02T02:14:41.242Z,96761.77
2018-03-02T02:15:12.870Z,96760.91
2018-03-02T02:15:44.497Z,96760.28
2018-03-02T02:16:16.126Z,96756.67
2018-03-02T02:16:47.791Z,96767.02
2018-03-02T02:17:19.418Z,96763.53
2018-03-02T02:17:51.090Z,96763.98
2018-03-02T02:18:22.713Z,96759.02
2018-03-02T02:18:54.346Z,96764.41
2018-03-02T02:19:25.974Z,96759.37
2018-03-02T02:19:57.604Z,96761.63
2018-03-02T02:20:29.230Z,96760.03
2018-03-02T02:21:00.858Z,96762.16
2018-03-02T02:21:32.482Z,96761.66
2018-03-02T02:22:04.166Z,96758.34
2018-03-02T02:22:35.794Z,96756.19
2018-03-02T02:23:07.422Z,96759.20
2018-03-02T02:23:39.050Z,96761.52
2018-03-02T02:24:10.673Z,96757.89
2018-03-02T02:24:42.302Z,96758.94
2018-03-02T02:25:14.932Z,96756.42
2018-03-02T02:25:46.562Z,96759.02
2018-03-02T02:26:18.186Z,96753.53
2018-03-02T02:26:49.814Z,96751.44
2018-03-02T02:27:21.482Z,96754.83
2018-03-02T02:27:53.110Z,96757.14
2018-03-02T02:28:24.738Z,96751.38
2018-03-02T02:28:56.363Z,96747.45
2018-03-02T02:29:27.995Z,96755.05
2018-03-02T02:29:59.622Z,96750.02
2018-03-02T02:30:31.259Z,96756.90
2018-03-02T02:31:02.886Z,96757.41
2018-03-02T02:31:34.566Z,96755.02
2018-03-02T02:32:06.212Z,96755.12
2018-03-02T02:32:37.838Z,96748.47
2018-03-02T02:33:09.466Z,96759.13
2018-03-02T02:33:41.142Z,96752.00
2018-03-02T02:34:12.766Z,96757.45
2018-03-02T02:34:44.391Z,96750.97
2018-03-02T02:35:16.019Z,96755.80
2018-03-02T02:35:47.647Z,96753.34
2018-03-02T02:36:19.276Z,96759.86
2018-03-02T02:36:50.902Z,96735.55
2018-03-02T02:37:22.527Z,96756.13
2018-03-02T02:37:54.164Z,96753.21
2018-03-02T02:38:25.786Z,96755.75
2018-03-02T02:38:57.462Z,96755.88
2018-03-02T02:39:29.114Z,96753.86
2018-03-02T02:40:00.741Z,96750.22
2018-03-02T02:40:32.371Z,96753.95
2018-03-02T02:41:04.001Z,96753.97
2018-03-02T02:41:35.631Z,96752.38
2018-03-02T02:42:07.262Z,96754.56
2018-03-02T02:42:38.891Z,96748.63
2018-03-02T02:43:10.528Z,96755.05
2018-03-02T02:43:42.158Z,96747.86
2018-03-02T02:44:13.833Z,96749.64
2018-03-02T02:44:45.462Z,96764.91
2018-03-02T02:45:17.082Z,96747.19
2018-03-02T02:45:48.707Z,96748.02
2018-03-02T02:46:20.330Z,96747.28
2018-03-02T02:46:51.958Z,96751.12
2018-03-02T02:47:23.581Z,96745.48
2018-03-02T02:47:55.206Z,96744.67
2018-03-02T02:48:26.829Z,96746.47
2018-03-02T02:48:58.495Z,96746.84
2018-03-02T02:49:30.127Z,96741.86
2018-03-02T02:50:01.777Z,96741.44
2018-03-02T02:50:33.398Z,96746.64
2018-03-02T02:51:05.022Z,96743.69
2018-03-02T02:51:36.866Z,96745.03
2018-03-02T02:52:08.499Z,96745.48
2018-03-02T02:52:40.131Z,96739.59
2018-03-02T02:53:11.758Z,96750.33
2018-03-02T02:53:43.387Z,96744.88
2018-03-02T02:54:15.015Z,96743.63
2018-03-02T02:54:46.645Z,96741.09
2018-03-02T02:55:18.266Z,96745.72
2018-03-02T02:55:49.898Z,96741.17
2018-03-02T02:56:21.546Z,96741.19
2018-03-02T02:56:53.226Z,96745.42
2018-03-02T02:57:24.855Z,96747.95
2018-03-02T02:57:56.486Z,96743.70
2018-03-02T02:58:28.114Z,96742.46
2018-03-02T02:58:59.738Z,96741.67
2018-03-02T02:59:31.362Z,96740.44
2018-03-02T03:00:02.986Z,96737.13
2018-03-02T03:00:34.611Z,96732.88
2018-03-02T03:01:06.242Z,96732.80
2018-03-02T03:01:37.888Z,96733.60
2018-03-02T03:02:09.554Z,96732.33
2018-03-02T03:02:41.175Z,96735.75
2018-03-02T03:03:12.860Z,96731.45
2018-03-02T03:03:44.490Z,96726.42
2018-03-02T03:04:16.114Z,96730.30
2018-03-02T03:04:47.746Z,96731.63
2018-03-02T03:05:19.377Z,96735.08
2018-03-02T03:05:51.004Z,96731.59
2018-03-02T03:06:22.636Z,96732.03
2018-03-02T03:06:54.261Z,96727.98
2018-03-02T03:07:25.882Z,96729.27
2018-03-02T03:07:57.506Z,96727.20
2018-03-02T03:08:29.186Z,96729.32
2018-03-02T03:09:00.809Z,96729.73
2018-03-02T03:09:32.430Z,96730.27
2018-03-02T03:10:04.050Z,96733.69
2018-03-02T03:10:35.674Z,96730.38
2018-03-02T03:11:07.295Z,96726.99
2018-03-02T03:11:38.922Z,96727.95
2018-03-02T03:12:10.547Z,96731.48
2018-03-02T03:12:42.258Z,96727.27
2018-03-02T03:13:13.890Z,96728.64
2018-03-02T03:13:45.590Z,96730.34
2018-03-02T03:14:17.261Z,96732.08
2018-03-02T03:14:48.883Z,96728.30
2018-03-02T03:15:20.514Z,96734.33
2018-03-02T03:15:52.146Z,96731.75
2018-03-02T03:16:23.770Z,96724.98
2018-03-02T03:16:55.394Z,96725.93
2018-03-02T03:17:27.017Z,96720.05
2018-03-02T03:17:58.641Z,96728.20
2018-03-02T03:18:30.270Z,96726.11
2018-03-02T03:19:01.941Z,96723.92
2018-03-02T03:19:33.606Z,96723.11
2018-03-02T03:20:05.229Z,96720.60
2018-03-02T03:20:36.854Z,96726.13
2018-03-02T03:21:08.486Z,96716.75
2018-03-02T03:21:40.114Z,96714.55
2018-03-02T03:22:11.737Z,96714.84
2018-03-02T03:22:43.358Z,96712.06
2018-03-02T03:23:15.027Z,96717.72
2018-03-02T03:23:46.657Z,96718.00
2018-03-02T03:24:18.289Z,96717.95
2018-03-02T03:24:49.918Z,96714.31
2018-03-02T03:25:21.589Z,96709.53
2018-03-02T03:25:53.214Z,96716.13
2018-03-02T03:26:24.842Z,96711.31
2018-03-02T03:26:56.465Z,96707.70
2018-03-02T03:27:28.090Z,96710.02
2018-03-02T03:27:59.710Z,96706.02
2018-03-02T03:28:31.377Z,96708.23
2018-03-02T03:29:03.007Z,96704.41
2018-03-02T03:29:34.630Z,96704.18
2018-03-02T03:30:06.263Z,96704.22
2018-03-02T03:30:37.907Z,96702.66
2018-03-02T03:31:09.575Z,96699.98
2018-03-02T03:31:41.218Z,96702.94
2018-03-02T03:32:12.850Z,96703.80
2018-03-02T03:32:44.481Z,96698.02
2018-03-02T03:33:16.117Z,96696.30
2018-03-02T03:33:47.763Z,96693.62
2018-03-02T03:34:19.386Z,96694.38
2018-03-02T03:34:51.010Z,96691.32
2018-03-02T03:35:22.639Z,96691.20
2018-03-02T03:35:54.266Z,96692.39
2018-03-02T03:36:25.934Z,96689.28
2018-03-02T03:36:57.566Z,96695.77
2018-03-02T03:37:29.191Z,96691.49
2018-03-02T03:38:00.814Z,96688.89
2018-03-02T03:38:32.438Z,96687.31
2018-03-02T03:39:04.122Z,96687.04
2018-03-02T03:39:35.756Z,96687.80
2018-03-02T03:40:07.384Z,96696.05
2018-03-02T03:40:39.009Z,96686.02
2018-03-02T03:41:10.638Z,96685.27
2018-03-02T03:41:42.314Z,96684.70
2018-03-02T03:42:13.938Z,96688.11
2018-03-02T03:42:45.561Z,96690.00
2018-03-02T03:43:17.195Z,96690.00
2018-03-02T03:43:48.822Z,96683.35
2018-03-02T03:44:20.450Z,96690.03
2018-03-02T03:44:52.081Z,96688.20
2018-03-02T03:45:23.710Z,96686.92
2018-03-02T03:45:55.421Z,96687.24
2018-03-02T03:46:27.050Z,96691.06
2018-03-02T03:46:58.674Z,96686.09
2018-03-02T03:47:30.298Z,96686.97
2018-03-02T03:48:01.929Z,96686.72
2018-03-02T03:48:33.563Z,96688.77
2018-03-02T03:49:05.186Z,96685.64
2018-03-02T03:49:36.805Z,96686.83
2018-03-02T03:50:08.429Z,96682.83
2018-03-02T03:50:40.059Z,96684.09
2018-03-02T03:51:11.706Z,96683.59
2018-03-02T03:51:43.373Z,96684.73
2018-03-02T03:52:14.993Z,96685.16
2018-03-02T03:52:46.658Z,96679.28
2018-03-02T03:53:18.281Z,96681.61
2018-03-02T03:53:49.907Z,96676.33
2018-03-02T03:54:21.530Z,96673.98
2018-03-02T03:54:53.153Z,96662.28
2018-03-02T03:55:24.814Z,96679.86
2018-03-02T03:55:56.489Z,96677.75
2018-03-02T03:56:28.118Z,96680.52
2018-03-02T03:56:59.742Z,96681.21
2018-03-02T03:57:31.365Z,96682.18
2018-03-02T03:58:02.985Z,96666.44
2018-03-02T03:58:34.655Z,96668.77
2018-03-02T03:59:06.277Z,96673.48
2018-03-02T03:59:37.901Z,96671.27
2018-03-02T04:00:09.521Z,96675.06
2018-03-02T04:00:41.186Z,96665.36
2018-03-02T04:01:12.823Z,96663.77
2018-03-02T04:01:44.449Z,96664.77
2018-03-02T04:02:16.069Z,96663.25
2018-03-02T04:02:47.690Z,96667.13
2018-03-02T04:03:19.320Z,96669.00
2018-03-02T04:03:50.954Z,96670.74
2018-03-02T04:04:22.582Z,96664.64
2018-03-02T04:04:54.210Z,96670.94
2018-03-02T04:05:25.895Z,96666.09
2018-03-02T04:05:57.517Z,96666.46
2018-03-02T04:06:29.147Z,96666.76
2018-03-02T04:07:00.773Z,96667.85
2018-03-02T04:07:32.442Z,96655.20
2018-03-02T04:08:04.054Z,96665.94
2018-03-02T04:08:35.694Z,96665.22
2018-03-02T04:09:07.317Z,96656.03
2018-03-02T04:09:38.947Z,96656.13
2018-03-02T04:10:10.569Z,96662.85
2018-03-02T04:10:42.242Z,96661.49
2018-03-02T04:11:13.866Z,96663.23
2018-03-02T04:11:45.494Z,96661.29
2018-03-02T04:12:17.122Z,96659.03
2018-03-02T04:12:48.762Z,96660.53
2018-03-02T04:13:20.394Z,96658.70
2018-03-02T04:13:54.431Z,96656.77
2018-03-02T04:14:26.054Z,96664.89
2018-03-02T04:14:57.677Z,96661.92
2018-03-02T04:15:29.302Z,96662.18
2018-03-02T04:16:00.970Z,96657.94
2018-03-02T04:16:32.595Z,96657.98
2018-03-02T04:17:04.220Z,96658.05
2018-03-02T04:17:35.841Z,96660.31
2018-03-02T04:18:07.467Z,96665.92
2018-03-02T04:18:39.094Z,96665.66
2018-03-02T04:19:10.721Z,96659.03
2018-03-02T04:19:42.346Z,96665.40
2018-03-02T04:20:13.974Z,96668.05
2018-03-02T04:20:45.603Z,96668.05
2018-03-02T04:21:17.281Z,96673.66
2018-03-02T04:21:48.910Z,96672.27
2018-03-02T04:22:20.538Z,96665.56
2018-03-02T04:22:52.166Z,96673.77
2018-03-02T04:23:23.838Z,96668.83
2018-03-02T04:23:55.466Z,96673.66
2018-03-02T04:24:27.090Z,96666.45
2018-03-02T04:24:58.713Z,96669.48
2018-03-02T04:25:30.342Z,96666.98
2018-03-02T04:26:01.965Z,96667.09
2018-03-02T04:26:33.595Z,96664.47
2018-03-02T04:27:05.223Z,96666.66
2018-03-02T04:27:36.850Z,96664.58
2018-03-02T04:28:08.478Z,96664.20
2018-03-02T04:28:40.103Z,96661.76
2018-03-02T04:29:11.725Z,96664.25
2018-03-02T04:29:43.350Z,96662.72
2018-03-02T04:30:14.976Z,96660.70
2018-03-02T04:30:46.598Z,96665.80
2018-03-02T04:31:18.282Z,96660.21
2018-03-02T04:31:49.910Z,96660.78
2018-03-02T04:32:21.534Z,96657.91
2018-03-02T04:32:53.166Z,96661.64
2018-03-02T04:33:24.811Z,96654.95
2018-03-02T04:33:56.443Z,96654.62
2018-03-02T04:34:28.065Z,96661.07
2018-03-02T04:34:59.690Z,96655.69
2018-03-02T04:35:31.314Z,96662.48
2018-03-02T04:36:02.942Z,96658.35
2018-03-02T04:36:34.615Z,96660.55
2018-03-02T04:37:06.242Z,96655.47
2018-03-02T04:37:37.905Z,96654.63
2018-03-02T04:38:09.527Z,96662.33
2018-03-02T04:38:41.218Z,96658.17
2018-03-02T04:39:12.841Z,96656.57
2018-03-02T04:39:44.462Z,96656.98
2018-03-02T04:40:16.231Z,96649.77
2018-03-02T04:40:47.862Z,96657.86
2018-03-02T04:41:19.487Z,96652.35
2018-03-02T04:41:51.122Z,96651.84
2018-03-02T04:42:22.751Z,96645.99
2018-03-02T04:42:54.378Z,96650.98
2018-03-02T04:43:26.002Z,96645.95
2018-03-02T04:43:57.682Z,96645.45
2018-03-02T04:44:29.306Z,96644.20
2018-03-02T04:45:00.934Z,96649.27
2018-03-02T04:45:32.557Z,96641.34
2018-03-02T04:46:04.185Z,96645.88
2018-03-02T04:46:35.806Z,96649.28
2018-03-02T04:47:07.438Z,96646.29
2018-03-02T04:47:39.068Z,96641.20
2018-03-02T04:48:10.699Z,96647.59
2018-03-02T04:48:42.322Z,96647.14
2018-03-02T04:49:13.989Z,96644.49
2018-03-02T04:49:45.609Z,96643.69
2018-03-02T04:50:17.235Z,96646.13
2018-03-02T04:50:48.870Z,96643.48
2018-03-02T04:51:20.534Z,96640.91
2018-03-02T04:51:52.157Z,96640.00
2018-03-02T04:52:23.826Z,96642.03
2018-03-02T04:52:55.454Z,96642.00
2018-03-02T04:53:27.082Z,96642.26
2018-03-02T04:53:58.715Z,96644.75
2018-03-02T04:54:30.338Z,96639.57
2018-03-02T04:55:01.958Z,96633.45
2018-03-02T04:55:33.590Z,96633.80
2018-03-02T04:56:05.254Z,96641.23
2018-03-02T04:56:36.878Z,96633.06
2018-03-02T04:57:08.510Z,96634.84
2018-03-02T04:57:40.145Z,96630.59
2018-03-02T04:58:11.778Z,96628.86
2018-03-02T04:58:43.406Z,96626.09
2018-03-02T04:59:15.030Z,96625.86
2018-03-02T04:59:46.701Z,96623.45
2018-03-02T05:00:18.325Z,96619.20
2018-03-02T05:00:49.954Z,96625.77
2018-03-02T05:01:21.578Z,96620.20
2018-03-02T05:01:53.202Z,96624.03
2018-03-02T05:02:24.830Z,96623.11
2018-03-02T05:02:56.502Z,96622.16
2018-03-02T05:03:28.131Z,96621.77
2018-03-02T05:03:59.758Z,96618.88
2018-03-02T05:04:31.385Z,96618.45
2018-03-02T05:05:03.014Z,96611.27
2018-03-02T05:05:34.686Z,96621.48
2018-03-02T05:06:06.306Z,96618.38
2018-03-02T05:06:37.934Z,96617.43
2018-03-02T05:07:09.570Z,96619.41
2018-03-02T05:07:41.194Z,96621.23
2018-03-02T05:08:12.822Z,96617.27
2018-03-02T05:08:44.454Z,96621.03
2018-03-02T05:09:16.078Z,96619.09
2018-03-02T05:09:47.707Z,96618.41
2018-03-02T05:10:19.334Z,96622.38
2018-03-02T05:10:50.962Z,96613.72
2018-03-02T05:11:22.714Z,96620.17
2018-03-02T05:11:54.429Z,96620.31
2018-03-02T05:12:26.061Z,96607.64
2018-03-02T05:12:57.689Z,96615.39
2018-03-02T05:13:29.322Z,96610.86
2018-03-02T05:14:00.962Z,96615.63
2018-03-02T05:14:32.598Z,96610.22
2018-03-02T05:15:04.236Z,96610.80
2018-03-02T05:15:35.877Z,96606.55
2018-03-02T05:16:07.510Z,96612.02
2018-03-02T05:16:39.152Z,96604.00
2018-03-02T05:17:10.790Z,96609.95
2018-03-02T05:17:42.422Z,96608.20
2018-03-02T05:18:14.047Z,96608.63
2018-03-02T05:18:45.670Z,96613.23
2018-03-02T05:19:17.294Z,96605.86
2018-03-02T05:19:48.922Z,96607.88
2018-03-02T05:20:20.550Z,96605.69
2018-03-02T05:20:52.177Z,96603.97
2018-03-02T05:21:23.807Z,96604.81
2018-03-02T05:21:55.533Z,96608.43
2018-03-02T05:22:27.153Z,96601.55
2018-03-02T05:22:58.783Z,96602.37
2018-03-02T05:23:30.406Z,96602.02
2018-03-02T05:24:02.026Z,96603.97
2018-03-02T05:24:33.655Z,96601.20
2018-03-02T05:25:05.322Z,96601.64
2018-03-02T05:25:36.945Z,96599.53
2018-03-02T05:26:08.622Z,96605.39
2018-03-02T05:26:40.245Z,96597.73
2018-03-02T05:27:11.869Z,96600.95
2018-03-02T05:27:43.543Z,96603.89
2018-03-02T05:28:15.166Z,96604.32
2018-03-02T05:28:46.794Z,96600.39
2018-03-02T05:29:18.418Z,96592.38
2018-03-02T05:29:50.048Z,96591.06
2018-03-02T05:30:21.670Z,96595.77
2018-03-02T05:30:53.294Z,96592.75
2018-03-02T05:31:24.962Z,96600.25
2018-03-02T05:31:56.586Z,96600.30
2018-03-02T05:32:28.212Z,96601.52
2018-03-02T05:32:59.841Z,96597.31
2018-03-02T05:33:31.465Z,96597.67
2018-03-02T05:34:03.115Z,96597.64
2018-03-02T05:34:34.750Z,96597.15
2018-03-02T05:35:06.421Z,96603.11
2018-03-02T05:35:38.055Z,96600.63
2018-03-02T05:36:09.678Z,96595.04
2018-03-02T05:36:41.305Z,96595.11
2018-03-02T05:37:12.936Z,96591.71
2018-03-02T05:37:44.566Z,96593.81
2018-03-02T05:38:16.194Z,96589.47
2018-03-02T05:38:47.817Z,96599.14
2018-03-02T05:39:19.448Z,96594.83
2018-03-02T05:39:51.122Z,96591.01
2018-03-02T05:40:22.746Z,96594.88
2018-03-02T05:40:54.369Z,96593.08
2018-03-02T05:41:25.998Z,96592.19
2018-03-02T05:41:57.621Z,96588.65
2018-03-02T05:42:29.245Z,96589.72
2018-03-02T05:43:00.871Z,96584.97
2018-03-02T05:43:32.499Z,96592.38
2018-03-02T05:44:04.125Z,96592.80
2018-03-02T05:44:35.802Z,96589.39
2018-03-02T05:45:07.425Z,96590.00
2018-03-02T05:45:39.054Z,96593.67
2018-03-02T05:46:10.707Z,96593.52
2018-03-02T05:46:42.329Z,96590.16
2018-03-02T05:47:13.950Z,96588.42
2018-03-02T05:47:45.570Z,96587.14
2018-03-02T05:48:17.199Z,96602.75
2018-03-02T05:48:48.826Z,96592.91
2018-03-02T05:49:20.454Z,96587.30
2018-03-02T05:49:52.130Z,96590.31
2018-03-02T05:50:23.758Z,96589.16
2018-03-02T05:50:55.389Z,96589.06
2018-03-02T05:51:27.029Z,96583.44
2018-03-02T05:51:58.662Z,96589.90
2018-03-02T05:52:30.291Z,96585.91
2018-03-02T05:53:01.918Z,96586.98
2018-03-02T05:53:33.558Z,96583.53
2018-03-02T05:54:05.186Z,96579.66
2018-03-02T05:54:36.814Z,96581.19
2018-03-02T05:55:08.437Z,96573.77
2018-03-02T05:55:40.101Z,96578.47
2018-03-02T05:56:11.731Z,96569.30
2018-03-02T05:56:43.358Z,96575.30
2018-03-02T05:57:14.978Z,96576.03
2018-03-02T05:57:46.602Z,96570.84
2018-03-02T05:58:18.231Z,96575.55
2018-03-02T05:58:49.862Z,96571.13
2018-03-02T05:59:21.493Z,96572.47
2018-03-02T05:59:53.133Z,96571.22
2018-03-02T06:00:24.814Z,96568.98
2018-03-02T06:00:56.442Z,96571.09
2018-03-02T06:01:28.070Z,96569.70
2018-03-02T06:01:59.694Z,96565.39
2018-03-02T06:02:31.322Z,96566.66
2018-03-02T06:03:02.950Z,96568.05
2018-03-02T06:03:34.574Z,96562.52
2018-03-02T06:04:06.208Z,96563.91
2018-03-02T06:04:37.830Z,96562.59
2018-03-02T06:05:09.453Z,96562.20
2018-03-02T06:05:41.153Z,96565.05
2018-03-02T06:06:12.788Z,96566.13
2018-03-02T06:06:44.411Z,96564.93
2018-03-02T06:07:16.042Z,96561.84
2018-03-02T06:07:47.666Z,96566.78
2018-03-02T06:08:19.298Z,96557.20
2018-03-02T06:08:50.926Z,96566.52
2018-03-02T06:09:22.554Z,96564.73
2018-03-02T06:09:54.182Z,96568.99
2018-03-02T06:10:25.814Z,96566.88
2018-03-02T06:10:57.443Z,96563.02
2018-03-02T06:11:29.110Z,96571.40